Aeroporto :
LOGIN :

Iscrizione | Disclaimer

   EN    FR    IT 

 










Sommario :    VFR   VFR Marginale   IFR   IFR Intensivo   IFR Molto Intensivo
Visibilità : 
Base nubi : 
>= 8 km
>= 3000ft
5 / 8 km
1000 / 3000 ft
1500m / 5 km
500 / 1000 ft
800 / 1500m
200 / 500 ft
< 800m
< 200 ft
Simboli :   Temporali  Nebbia  Neve Forte  Precipitazioni Forti  Vento > 20 kt
SIGMETs :   Varie  Temporali  Ghiacco  Turbolenza  Onda orograficha  Ceneri Vulcaniche






- Altitudine del aeroporto : 1090 ft
- Codice IATA : CFE


LFLC - Clermont-Ferrand Auvergne

ULTIMO METAR :
  • 232030Z AUTO 26003KT CAVOK 11/01 Q1030 NOSIG

METARs OBSOLETI :
  • 232000Z AUTO 24005KT CAVOK 11/01 Q1030 NOSIG
  • 231930Z AUTO 25007KT 230V290 CAVOK 14/01 Q1030 NOSIG
  • 231900Z AUTO 23009KT CAVOK 15/01 Q1030 NOSIG
  • 231830Z AUTO 21005KT CAVOK 15/01 Q1030 NOSIG
  • 231800Z AUTO 24007KT 210V280 CAVOK 16/01 Q1029 NOSIG

TAF TAF LFLC
Valido dal 23 a 15 ore il 24 a 15 ore UTC


231400Z 2315/2415 18006KT CAVOK
BECMG 2319/2322 BKN033
BECMG 2408/2411 CAVOK
ATIS : +33 4 73 62 74 38



MetMap, La meteo Aeronautica in un colpo d'occhio ! - Copyright ORBIFLY Dicembre 2007 - Disclaimer

ORBIFLY MET'MAP TEAM :

Programmazione e sviluppo : Alexandra Zaïnal
Concezione : Baudouin d'Aumeries
Aiuto per la programmazione : Marc-Olivier Méhu
Supporto tecnico e logistico : Manuel Goepfert
Aiuto per la traduzione : Arnaldo La Scala

Contatto : metmap@orbifly.com




FONTI E CREDITI :

   NOAA